sensor_id;sensor_type;location;lat;lon;timestamp;P1;durP1;ratioP1;P2;durP2;ratioP2
16727;SDS011;8482;54.396;18.590;2022-11-11T00:01:01;7.15;;;3.78;;
16727;SDS011;8482;54.396;18.590;2022-11-11T00:03:37;8.75;;;4.50;;
16727;SDS011;8482;54.396;18.590;2022-11-11T00:06:04;8.63;;;5.05;;
16727;SDS011;8482;54.396;18.590;2022-11-11T00:08:34;8.63;;;4.70;;
16727;SDS011;8482;54.396;18.590;2022-11-11T00:11:03;11.15;;;4.57;;
16727;SDS011;8482;54.396;18.590;2022-11-11T00:13:33;9.00;;;4.72;;
16727;SDS011;8482;54.396;18.590;2022-11-11T00:16:10;7.85;;;4.40;;
16727;SDS011;8482;54.396;18.590;2022-11-11T00:18:40;10.27;;;4.88;;
16727;SDS011;8482;54.396;18.590;2022-11-11T00:21:26;8.68;;;4.35;;
16727;SDS011;8482;54.396;18.590;2022-11-11T00:23:52;9.05;;;4.53;;
16727;SDS011;8482;54.396;18.590;2022-11-11T00:26:36;9.15;;;4.40;;
16727;SDS011;8482;54.396;18.590;2022-11-11T00:29:02;8.90;;;4.40;;
16727;SDS011;8482;54.396;18.590;2022-11-11T00:31:28;9.98;;;4.72;;
16727;SDS011;8482;54.396;18.590;2022-11-11T00:33:54;10.18;;;4.68;;
16727;SDS011;8482;54.396;18.590;2022-11-11T00:36:19;9.23;;;4.40;;
16727;SDS011;8482;54.396;18.590;2022-11-11T00:38:45;9.38;;;4.38;;
16727;SDS011;8482;54.396;18.590;2022-11-11T00:41:12;10.15;;;4.45;;
16727;SDS011;8482;54.396;18.590;2022-11-11T00:43:43;7.20;;;4.30;;
16727;SDS011;8482;54.396;18.590;2022-11-11T00:46:11;9.65;;;4.22;;
16727;SDS011;8482;54.396;18.590;2022-11-11T00:48:58;7.75;;;4.30;;
16727;SDS011;8482;54.396;18.590;2022-11-11T00:51:42;9.18;;;4.05;;
16727;SDS011;8482;54.396;18.590;2022-11-11T00:54:08;8.98;;;4.15;;
16727;SDS011;8482;54.396;18.590;2022-11-11T00:56:34;8.30;;;4.20;;
16727;SDS011;8482;54.396;18.590;2022-11-11T00:59:02;7.03;;;3.95;;
16727;SDS011;8482;54.396;18.590;2022-11-11T01:01:32;7.40;;;4.70;;
16727;SDS011;8482;54.396;18.590;2022-11-11T01:04:00;10.43;;;4.20;;
16727;SDS011;8482;54.396;18.590;2022-11-11T01:06:26;7.55;;;4.10;;
16727;SDS011;8482;54.396;18.590;2022-11-11T01:08:52;7.30;;;3.95;;
16727;SDS011;8482;54.396;18.590;2022-11-11T01:11:19;8.27;;;3.72;;
16727;SDS011;8482;54.396;18.590;2022-11-11T01:13:48;8.15;;;4.35;;
16727;SDS011;8482;54.396;18.590;2022-11-11T01:16:15;8.32;;;4.15;;
16727;SDS011;8482;54.396;18.590;2022-11-11T01:18:48;7.05;;;4.22;;
16727;SDS011;8482;54.396;18.590;2022-11-11T01:21:17;9.60;;;3.88;;
16727;SDS011;8482;54.396;18.590;2022-11-11T01:23:46;9.30;;;4.55;;
16727;SDS011;8482;54.396;18.590;2022-11-11T01:26:18;10.77;;;4.07;;
16727;SDS011;8482;54.396;18.590;2022-11-11T01:28:49;10.05;;;4.18;;
16727;SDS011;8482;54.396;18.590;2022-11-11T01:31:18;8.23;;;3.90;;
16727;SDS011;8482;54.396;18.590;2022-11-11T01:33:46;8.88;;;3.70;;
16727;SDS011;8482;54.396;18.590;2022-11-11T01:36:17;10.10;;;4.32;;
16727;SDS011;8482;54.396;18.590;2022-11-11T01:38:50;7.18;;;4.03;;
16727;SDS011;8482;54.396;18.590;2022-11-11T01:41:27;9.02;;;4.40;;
16727;SDS011;8482;54.396;18.590;2022-11-11T01:43:59;8.85;;;4.07;;
16727;SDS011;8482;54.396;18.590;2022-11-11T01:55:10;7.43;;;3.80;;
16727;SDS011;8482;54.396;18.590;2022-11-11T02:00:32;8.00;;;3.70;;
16727;SDS011;8482;54.396;18.590;2022-11-11T02:03:05;9.68;;;3.85;;
16727;SDS011;8482;54.396;18.590;2022-11-11T02:05:34;7.40;;;3.72;;
16727;SDS011;8482;54.396;18.590;2022-11-11T02:08:17;7.60;;;3.47;;
16727;SDS011;8482;54.396;18.590;2022-11-11T02:11:01;6.85;;;3.58;;
16727;SDS011;8482;54.396;18.590;2022-11-11T02:13:36;9.52;;;3.50;;
16727;SDS011;8482;54.396;18.590;2022-11-11T02:16:24;9.05;;;3.97;;
16727;SDS011;8482;54.396;18.590;2022-11-11T02:18:50;10.32;;;3.53;;
16727;SDS011;8482;54.396;18.590;2022-11-11T02:21:19;9.70;;;3.58;;
16727;SDS011;8482;54.396;18.590;2022-11-11T02:24:07;7.07;;;3.63;;
16727;SDS011;8482;54.396;18.590;2022-11-11T02:26:39;9.10;;;3.50;;
16727;SDS011;8482;54.396;18.590;2022-11-11T02:29:10;7.20;;;3.85;;
16727;SDS011;8482;54.396;18.590;2022-11-11T02:31:41;7.65;;;3.40;;
16727;SDS011;8482;54.396;18.590;2022-11-11T02:34:07;7.60;;;3.67;;
16727;SDS011;8482;54.396;18.590;2022-11-11T02:36:33;9.40;;;3.90;;
16727;SDS011;8482;54.396;18.590;2022-11-11T02:38:59;5.85;;;3.13;;
16727;SDS011;8482;54.396;18.590;2022-11-11T02:41:25;7.18;;;3.78;;
16727;SDS011;8482;54.396;18.590;2022-11-11T02:44:09;6.05;;;3.35;;
16727;SDS011;8482;54.396;18.590;2022-11-11T02:46:35;6.20;;;3.20;;
16727;SDS011;8482;54.396;18.590;2022-11-11T02:49:00;6.15;;;3.65;;
16727;SDS011;8482;54.396;18.590;2022-11-11T02:51:26;9.75;;;3.70;;
16727;SDS011;8482;54.396;18.590;2022-11-11T02:53:52;6.45;;;3.55;;
16727;SDS011;8482;54.396;18.590;2022-11-11T02:56:22;7.30;;;3.90;;
16727;SDS011;8482;54.396;18.590;2022-11-11T02:59:07;5.80;;;2.92;;
16727;SDS011;8482;54.396;18.590;2022-11-11T03:01:33;6.88;;;3.10;;
16727;SDS011;8482;54.396;18.590;2022-11-11T03:03:59;9.60;;;3.20;;
16727;SDS011;8482;54.396;18.590;2022-11-11T03:06:25;6.70;;;3.10;;
16727;SDS011;8482;54.396;18.590;2022-11-11T03:08:51;6.95;;;3.50;;
16727;SDS011;8482;54.396;18.590;2022-11-11T03:11:16;7.63;;;3.30;;
16727;SDS011;8482;54.396;18.590;2022-11-11T03:13:58;6.55;;;3.40;;
16727;SDS011;8482;54.396;18.590;2022-11-11T03:16:24;8.25;;;3.45;;
16727;SDS011;8482;54.396;18.590;2022-11-11T03:19:09;6.53;;;3.33;;
16727;SDS011;8482;54.396;18.590;2022-11-11T03:21:35;7.68;;;3.47;;
16727;SDS011;8482;54.396;18.590;2022-11-11T03:24:02;7.00;;;3.22;;
16727;SDS011;8482;54.396;18.590;2022-11-11T03:26:28;6.78;;;3.15;;
16727;SDS011;8482;54.396;18.590;2022-11-11T03:28:54;8.65;;;3.08;;
16727;SDS011;8482;54.396;18.590;2022-11-11T03:31:20;6.22;;;2.85;;
16727;SDS011;8482;54.396;18.590;2022-11-11T03:33:46;6.68;;;2.70;;
16727;SDS011;8482;54.396;18.590;2022-11-11T03:36:12;5.10;;;2.55;;
16727;SDS011;8482;54.396;18.590;2022-11-11T03:38:38;7.90;;;3.25;;
16727;SDS011;8482;54.396;18.590;2022-11-11T03:41:04;6.05;;;2.80;;
16727;SDS011;8482;54.396;18.590;2022-11-11T03:43:30;5.47;;;3.00;;
16727;SDS011;8482;54.396;18.590;2022-11-11T03:46:00;4.55;;;2.97;;
16727;SDS011;8482;54.396;18.590;2022-11-11T03:48:30;7.75;;;3.40;;
16727;SDS011;8482;54.396;18.590;2022-11-11T03:50:58;8.68;;;2.83;;
16727;SDS011;8482;54.396;18.590;2022-11-11T03:53:23;7.97;;;3.25;;
16727;SDS011;8482;54.396;18.590;2022-11-11T03:55:50;7.35;;;2.75;;
16727;SDS011;8482;54.396;18.590;2022-11-11T03:58:16;6.45;;;2.80;;
16727;SDS011;8482;54.396;18.590;2022-11-11T04:00:43;7.60;;;3.00;;
16727;SDS011;8482;54.396;18.590;2022-11-11T04:03:10;5.10;;;2.72;;
16727;SDS011;8482;54.396;18.590;2022-11-11T04:05:54;7.38;;;3.08;;
16727;SDS011;8482;54.396;18.590;2022-11-11T04:08:47;6.35;;;3.35;;
16727;SDS011;8482;54.396;18.590;2022-11-11T04:11:34;5.95;;;2.63;;
16727;SDS011;8482;54.396;18.590;2022-11-11T04:14:08;6.72;;;3.33;;
16727;SDS011;8482;54.396;18.590;2022-11-11T04:16:54;5.78;;;2.72;;
16727;SDS011;8482;54.396;18.590;2022-11-11T04:19:21;8.50;;;2.97;;
16727;SDS011;8482;54.396;18.590;2022-11-11T04:22:05;5.35;;;2.45;;
16727;SDS011;8482;54.396;18.590;2022-11-11T04:24:31;8.50;;;2.95;;
16727;SDS011;8482;54.396;18.590;2022-11-11T04:27:16;6.53;;;2.53;;
16727;SDS011;8482;54.396;18.590;2022-11-11T04:29:44;6.57;;;3.03;;
16727;SDS011;8482;54.396;18.590;2022-11-11T04:32:21;6.35;;;2.75;;
16727;SDS011;8482;54.396;18.590;2022-11-11T04:35:00;9.32;;;3.13;;
16727;SDS011;8482;54.396;18.590;2022-11-11T04:37:32;6.53;;;2.55;;
16727;SDS011;8482;54.396;18.590;2022-11-11T04:40:08;7.05;;;3.08;;
16727;SDS011;8482;54.396;18.590;2022-11-11T04:42:53;8.55;;;3.70;;
16727;SDS011;8482;54.396;18.590;2022-11-11T04:45:19;9.00;;;3.13;;
16727;SDS011;8482;54.396;18.590;2022-11-11T04:48:02;7.20;;;2.70;;
16727;SDS011;8482;54.396;18.590;2022-11-11T04:50:34;6.78;;;3.05;;
16727;SDS011;8482;54.396;18.590;2022-11-11T04:53:04;7.30;;;2.90;;
16727;SDS011;8482;54.396;18.590;2022-11-11T04:55:34;7.90;;;3.50;;
16727;SDS011;8482;54.396;18.590;2022-11-11T04:58:21;5.97;;;2.75;;
16727;SDS011;8482;54.396;18.590;2022-11-11T05:00:50;7.13;;;3.25;;
16727;SDS011;8482;54.396;18.590;2022-11-11T05:03:16;7.20;;;2.72;;
16727;SDS011;8482;54.396;18.590;2022-11-11T05:08:36;5.28;;;2.55;;
16727;SDS011;8482;54.396;18.590;2022-11-11T05:11:30;7.40;;;2.90;;
16727;SDS011;8482;54.396;18.590;2022-11-11T05:14:01;7.40;;;3.17;;
16727;SDS011;8482;54.396;18.590;2022-11-11T05:16:52;7.47;;;2.90;;
16727;SDS011;8482;54.396;18.590;2022-11-11T05:19:39;5.93;;;3.17;;
16727;SDS011;8482;54.396;18.590;2022-11-11T05:22:34;8.45;;;2.83;;
16727;SDS011;8482;54.396;18.590;2022-11-11T05:25:05;6.93;;;2.72;;
16727;SDS011;8482;54.396;18.590;2022-11-11T05:27:51;8.43;;;3.50;;
16727;SDS011;8482;54.396;18.590;2022-11-11T05:30:17;6.45;;;3.10;;
16727;SDS011;8482;54.396;18.590;2022-11-11T05:32:45;7.20;;;2.88;;
16727;SDS011;8482;54.396;18.590;2022-11-11T05:35:12;6.68;;;3.00;;
16727;SDS011;8482;54.396;18.590;2022-11-11T05:37:38;8.35;;;3.20;;
16727;SDS011;8482;54.396;18.590;2022-11-11T05:40:04;7.28;;;2.90;;
16727;SDS011;8482;54.396;18.590;2022-11-11T05:42:32;5.70;;;2.65;;
16727;SDS011;8482;54.396;18.590;2022-11-11T05:44:58;7.30;;;3.20;;
16727;SDS011;8482;54.396;18.590;2022-11-11T05:47:23;6.45;;;2.80;;
16727;SDS011;8482;54.396;18.590;2022-11-11T05:49:49;7.50;;;2.83;;
16727;SDS011;8482;54.396;18.590;2022-11-11T05:52:15;8.55;;;3.00;;
16727;SDS011;8482;54.396;18.590;2022-11-11T05:54:42;7.10;;;2.58;;
16727;SDS011;8482;54.396;18.590;2022-11-11T05:57:09;7.90;;;2.67;;
16727;SDS011;8482;54.396;18.590;2022-11-11T05:59:35;6.13;;;2.55;;
16727;SDS011;8482;54.396;18.590;2022-11-11T06:02:01;6.45;;;2.47;;
16727;SDS011;8482;54.396;18.590;2022-11-11T06:04:28;8.77;;;3.15;;
16727;SDS011;8482;54.396;18.590;2022-11-11T06:06:54;5.32;;;2.20;;
16727;SDS011;8482;54.396;18.590;2022-11-11T06:09:20;8.20;;;3.08;;
16727;SDS011;8482;54.396;18.590;2022-11-11T06:11:45;5.65;;;2.47;;
16727;SDS011;8482;54.396;18.590;2022-11-11T06:14:11;8.80;;;2.42;;
16727;SDS011;8482;54.396;18.590;2022-11-11T06:16:37;7.28;;;2.70;;
16727;SDS011;8482;54.396;18.590;2022-11-11T06:19:03;7.25;;;2.33;;
16727;SDS011;8482;54.396;18.590;2022-11-11T06:21:32;7.43;;;2.40;;
16727;SDS011;8482;54.396;18.590;2022-11-11T06:24:17;5.68;;;2.90;;
16727;SDS011;8482;54.396;18.590;2022-11-11T06:26:43;5.80;;;2.47;;
16727;SDS011;8482;54.396;18.590;2022-11-11T06:29:09;6.47;;;2.38;;
16727;SDS011;8482;54.396;18.590;2022-11-11T06:31:34;6.22;;;2.67;;
16727;SDS011;8482;54.396;18.590;2022-11-11T06:34:00;7.95;;;2.60;;
16727;SDS011;8482;54.396;18.590;2022-11-11T06:36:26;5.25;;;1.92;;
16727;SDS011;8482;54.396;18.590;2022-11-11T06:38:52;6.07;;;2.55;;
16727;SDS011;8482;54.396;18.590;2022-11-11T06:41:18;5.15;;;2.30;;
16727;SDS011;8482;54.396;18.590;2022-11-11T06:43:44;8.07;;;3.30;;
16727;SDS011;8482;54.396;18.590;2022-11-11T06:46:15;7.38;;;2.30;;
16727;SDS011;8482;54.396;18.590;2022-11-11T06:48:47;4.47;;;2.40;;
16727;SDS011;8482;54.396;18.590;2022-11-11T06:51:13;8.23;;;2.30;;
16727;SDS011;8482;54.396;18.590;2022-11-11T06:53:40;6.15;;;2.05;;
16727;SDS011;8482;54.396;18.590;2022-11-11T06:56:07;5.50;;;2.40;;
16727;SDS011;8482;54.396;18.590;2022-11-11T06:58:34;7.10;;;2.38;;
16727;SDS011;8482;54.396;18.590;2022-11-11T07:01:02;4.35;;;2.08;;
16727;SDS011;8482;54.396;18.590;2022-11-11T07:03:30;8.68;;;2.70;;
16727;SDS011;8482;54.396;18.590;2022-11-11T07:05:59;4.72;;;2.30;;
16727;SDS011;8482;54.396;18.590;2022-11-11T07:08:26;5.53;;;2.83;;
16727;SDS011;8482;54.396;18.590;2022-11-11T07:10:52;5.07;;;2.50;;
16727;SDS011;8482;54.396;18.590;2022-11-11T07:13:18;6.18;;;2.05;;
16727;SDS011;8482;54.396;18.590;2022-11-11T07:15:44;9.65;;;3.05;;
16727;SDS011;8482;54.396;18.590;2022-11-11T07:18:10;6.38;;;2.17;;
16727;SDS011;8482;54.396;18.590;2022-11-11T07:20:36;5.45;;;2.45;;
16727;SDS011;8482;54.396;18.590;2022-11-11T07:23:03;5.55;;;2.10;;
16727;SDS011;8482;54.396;18.590;2022-11-11T07:25:30;5.85;;;1.98;;
16727;SDS011;8482;54.396;18.590;2022-11-11T07:27:56;4.80;;;2.38;;
16727;SDS011;8482;54.396;18.590;2022-11-11T07:30:22;7.25;;;2.35;;
16727;SDS011;8482;54.396;18.590;2022-11-11T07:32:49;5.50;;;2.55;;
16727;SDS011;8482;54.396;18.590;2022-11-11T07:35:17;4.50;;;2.30;;
16727;SDS011;8482;54.396;18.590;2022-11-11T07:37:44;5.75;;;2.67;;
16727;SDS011;8482;54.396;18.590;2022-11-11T07:40:11;5.63;;;2.60;;
16727;SDS011;8482;54.396;18.590;2022-11-11T07:42:40;4.82;;;2.05;;
16727;SDS011;8482;54.396;18.590;2022-11-11T07:45:07;6.47;;;2.67;;
16727;SDS011;8482;54.396;18.590;2022-11-11T07:47:35;6.65;;;2.25;;
16727;SDS011;8482;54.396;18.590;2022-11-11T07:50:02;4.63;;;2.65;;
16727;SDS011;8482;54.396;18.590;2022-11-11T07:52:31;7.50;;;2.28;;
16727;SDS011;8482;54.396;18.590;2022-11-11T07:54:57;8.27;;;2.53;;
16727;SDS011;8482;54.396;18.590;2022-11-11T07:57:23;4.68;;;2.13;;
16727;SDS011;8482;54.396;18.590;2022-11-11T07:59:49;5.97;;;2.22;;
16727;SDS011;8482;54.396;18.590;2022-11-11T08:02:15;6.95;;;2.65;;
16727;SDS011;8482;54.396;18.590;2022-11-11T08:04:41;5.65;;;2.25;;
16727;SDS011;8482;54.396;18.590;2022-11-11T08:07:06;6.57;;;2.38;;
16727;SDS011;8482;54.396;18.590;2022-11-11T08:09:33;7.20;;;2.65;;
16727;SDS011;8482;54.396;18.590;2022-11-11T08:11:58;6.93;;;2.60;;
16727;SDS011;8482;54.396;18.590;2022-11-11T08:14:42;5.15;;;2.30;;
16727;SDS011;8482;54.396;18.590;2022-11-11T08:17:08;5.50;;;2.20;;
16727;SDS011;8482;54.396;18.590;2022-11-11T08:19:34;6.45;;;2.30;;
16727;SDS011;8482;54.396;18.590;2022-11-11T08:21:59;7.90;;;3.13;;
16727;SDS011;8482;54.396;18.590;2022-11-11T08:24:25;6.78;;;2.00;;
16727;SDS011;8482;54.396;18.590;2022-11-11T08:26:51;5.93;;;2.30;;
16727;SDS011;8482;54.396;18.590;2022-11-11T08:29:18;7.13;;;2.58;;
16727;SDS011;8482;54.396;18.590;2022-11-11T08:31:44;4.90;;;2.30;;
16727;SDS011;8482;54.396;18.590;2022-11-11T08:34:10;6.05;;;2.75;;
16727;SDS011;8482;54.396;18.590;2022-11-11T08:36:36;6.63;;;2.60;;
16727;SDS011;8482;54.396;18.590;2022-11-11T08:39:03;6.63;;;2.97;;
16727;SDS011;8482;54.396;18.590;2022-11-11T08:41:29;7.03;;;2.53;;
16727;SDS011;8482;54.396;18.590;2022-11-11T08:43:55;7.40;;;2.67;;
16727;SDS011;8482;54.396;18.590;2022-11-11T08:46:21;6.13;;;2.90;;
16727;SDS011;8482;54.396;18.590;2022-11-11T08:48:48;3.95;;;2.22;;
16727;SDS011;8482;54.396;18.590;2022-11-11T08:51:14;6.88;;;2.53;;
16727;SDS011;8482;54.396;18.590;2022-11-11T08:53:41;5.63;;;2.58;;
16727;SDS011;8482;54.396;18.590;2022-11-11T08:56:07;6.75;;;2.67;;
16727;SDS011;8482;54.396;18.590;2022-11-11T08:58:33;6.35;;;2.85;;
16727;SDS011;8482;54.396;18.590;2022-11-11T09:00:59;7.07;;;2.58;;
16727;SDS011;8482;54.396;18.590;2022-11-11T09:03:28;5.25;;;2.33;;
16727;SDS011;8482;54.396;18.590;2022-11-11T09:05:54;3.92;;;2.10;;
16727;SDS011;8482;54.396;18.590;2022-11-11T09:08:20;6.57;;;2.65;;
16727;SDS011;8482;54.396;18.590;2022-11-11T09:10:46;6.40;;;2.83;;
16727;SDS011;8482;54.396;18.590;2022-11-11T09:13:12;6.88;;;2.60;;
16727;SDS011;8482;54.396;18.590;2022-11-11T09:15:38;6.28;;;2.42;;
16727;SDS011;8482;54.396;18.590;2022-11-11T09:18:03;6.90;;;2.70;;
16727;SDS011;8482;54.396;18.590;2022-11-11T09:20:29;4.70;;;2.45;;
16727;SDS011;8482;54.396;18.590;2022-11-11T09:22:55;5.90;;;2.50;;
16727;SDS011;8482;54.396;18.590;2022-11-11T09:25:21;4.00;;;2.30;;
16727;SDS011;8482;54.396;18.590;2022-11-11T09:27:57;5.57;;;2.67;;
16727;SDS011;8482;54.396;18.590;2022-11-11T09:30:26;7.28;;;3.05;;
16727;SDS011;8482;54.396;18.590;2022-11-11T09:32:53;5.20;;;2.63;;
16727;SDS011;8482;54.396;18.590;2022-11-11T09:35:19;5.32;;;2.88;;
16727;SDS011;8482;54.396;18.590;2022-11-11T09:37:55;7.18;;;2.50;;
16727;SDS011;8482;54.396;18.590;2022-11-11T09:40:26;5.90;;;2.83;;
16727;SDS011;8482;54.396;18.590;2022-11-11T09:43:22;6.03;;;2.80;;
16727;SDS011;8482;54.396;18.590;2022-11-11T09:46:16;7.90;;;2.70;;
16727;SDS011;8482;54.396;18.590;2022-11-11T09:51:51;7.03;;;2.63;;
16727;SDS011;8482;54.396;18.590;2022-11-11T09:54:49;5.63;;;2.60;;
16727;SDS011;8482;54.396;18.590;2022-11-11T09:57:35;6.95;;;2.67;;
16727;SDS011;8482;54.396;18.590;2022-11-11T10:00:14;5.47;;;2.70;;
16727;SDS011;8482;54.396;18.590;2022-11-11T10:02:53;9.15;;;2.97;;
16727;SDS011;8482;54.396;18.590;2022-11-11T10:05:50;8.32;;;3.15;;
16727;SDS011;8482;54.396;18.590;2022-11-11T10:08:58;6.70;;;2.97;;
16727;SDS011;8482;54.396;18.590;2022-11-11T10:14:15;6.75;;;3.10;;
16727;SDS011;8482;54.396;18.590;2022-11-11T10:19:26;7.18;;;2.95;;
16727;SDS011;8482;54.396;18.590;2022-11-11T10:22:01;5.93;;;3.30;;
16727;SDS011;8482;54.396;18.590;2022-11-11T10:25:07;6.38;;;2.92;;
16727;SDS011;8482;54.396;18.590;2022-11-11T10:27:50;7.32;;;3.05;;
16727;SDS011;8482;54.396;18.590;2022-11-11T10:30:27;8.13;;;3.13;;
16727;SDS011;8482;54.396;18.590;2022-11-11T10:33:00;5.75;;;3.00;;
16727;SDS011;8482;54.396;18.590;2022-11-11T10:35:34;7.43;;;3.55;;
16727;SDS011;8482;54.396;18.590;2022-11-11T10:38:05;8.70;;;3.38;;
16727;SDS011;8482;54.396;18.590;2022-11-11T10:40:53;6.57;;;3.03;;
16727;SDS011;8482;54.396;18.590;2022-11-11T10:43:26;7.85;;;2.67;;
16727;SDS011;8482;54.396;18.590;2022-11-11T10:51:14;6.70;;;3.22;;
16727;SDS011;8482;54.396;18.590;2022-11-11T10:53:45;6.88;;;3.05;;
16727;SDS011;8482;54.396;18.590;2022-11-11T10:59:25;6.75;;;3.42;;
16727;SDS011;8482;54.396;18.590;2022-11-11T11:02:04;6.10;;;3.83;;
16727;SDS011;8482;54.396;18.590;2022-11-11T11:05:15;9.00;;;3.20;;
16727;SDS011;8482;54.396;18.590;2022-11-11T11:07:56;5.95;;;3.35;;
16727;SDS011;8482;54.396;18.590;2022-11-11T11:10:39;5.22;;;2.50;;
16727;SDS011;8482;54.396;18.590;2022-11-11T11:13:15;9.90;;;2.97;;
16727;SDS011;8482;54.396;18.590;2022-11-11T11:15:56;6.25;;;2.92;;
16727;SDS011;8482;54.396;18.590;2022-11-11T11:18:30;7.22;;;3.03;;
16727;SDS011;8482;54.396;18.590;2022-11-11T11:20:57;6.07;;;2.70;;
16727;SDS011;8482;54.396;18.590;2022-11-11T11:26:09;8.60;;;3.38;;
16727;SDS011;8482;54.396;18.590;2022-11-11T11:28:54;8.18;;;3.38;;
16727;SDS011;8482;54.396;18.590;2022-11-11T11:31:34;8.13;;;2.97;;
16727;SDS011;8482;54.396;18.590;2022-11-11T11:34:06;7.97;;;3.30;;
16727;SDS011;8482;54.396;18.590;2022-11-11T11:36:32;7.00;;;3.30;;
16727;SDS011;8482;54.396;18.590;2022-11-11T11:38:59;8.32;;;3.13;;
16727;SDS011;8482;54.396;18.590;2022-11-11T11:41:41;8.65;;;3.35;;
16727;SDS011;8482;54.396;18.590;2022-11-11T11:44:35;8.90;;;3.05;;
16727;SDS011;8482;54.396;18.590;2022-11-11T11:53:10;6.75;;;3.20;;
16727;SDS011;8482;54.396;18.590;2022-11-11T11:59:02;8.85;;;3.33;;
16727;SDS011;8482;54.396;18.590;2022-11-11T12:08:14;5.57;;;2.85;;
16727;SDS011;8482;54.396;18.590;2022-11-11T12:11:15;6.82;;;3.25;;
16727;SDS011;8482;54.396;18.590;2022-11-11T12:32:32;8.48;;;3.20;;
16727;SDS011;8482;54.396;18.590;2022-11-11T12:41:00;9.73;;;5.15;;
16727;SDS011;8482;54.396;18.590;2022-11-11T12:43:48;8.82;;;3.83;;
16727;SDS011;8482;54.396;18.590;2022-11-11T12:47:09;6.95;;;3.45;;
16727;SDS011;8482;54.396;18.590;2022-11-11T12:57:34;7.35;;;3.40;;
16727;SDS011;8482;54.396;18.590;2022-11-11T13:01:34;8.95;;;3.75;;
16727;SDS011;8482;54.396;18.590;2022-11-11T13:10:24;6.60;;;3.38;;
16727;SDS011;8482;54.396;18.590;2022-11-11T13:15:58;8.98;;;3.70;;
16727;SDS011;8482;54.396;18.590;2022-11-11T13:18:26;8.23;;;3.83;;
16727;SDS011;8482;54.396;18.590;2022-11-11T13:21:03;7.40;;;3.63;;
16727;SDS011;8482;54.396;18.590;2022-11-11T13:23:37;7.28;;;3.45;;
16727;SDS011;8482;54.396;18.590;2022-11-11T13:26:04;7.22;;;3.97;;
16727;SDS011;8482;54.396;18.590;2022-11-11T13:28:52;8.00;;;3.55;;
16727;SDS011;8482;54.396;18.590;2022-11-11T13:31:49;7.57;;;3.80;;
16727;SDS011;8482;54.396;18.590;2022-11-11T13:34:18;8.20;;;3.85;;
16727;SDS011;8482;54.396;18.590;2022-11-11T13:36:50;9.10;;;4.05;;
16727;SDS011;8482;54.396;18.590;2022-11-11T13:39:22;7.60;;;3.03;;
16727;SDS011;8482;54.396;18.590;2022-11-11T13:41:53;7.28;;;3.50;;
16727;SDS011;8482;54.396;18.590;2022-11-11T13:44:31;7.07;;;3.38;;
16727;SDS011;8482;54.396;18.590;2022-11-11T13:47:18;6.40;;;3.55;;
16727;SDS011;8482;54.396;18.590;2022-11-11T13:49:58;5.95;;;3.45;;
16727;SDS011;8482;54.396;18.590;2022-11-11T13:52:32;6.78;;;3.60;;
16727;SDS011;8482;54.396;18.590;2022-11-11T13:55:07;7.53;;;3.97;;
16727;SDS011;8482;54.396;18.590;2022-11-11T13:57:51;9.63;;;3.65;;
16727;SDS011;8482;54.396;18.590;2022-11-11T14:02:44;8.35;;;3.90;;
16727;SDS011;8482;54.396;18.590;2022-11-11T14:05:20;9.48;;;4.20;;
16727;SDS011;8482;54.396;18.590;2022-11-11T14:07:47;8.50;;;4.07;;
16727;SDS011;8482;54.396;18.590;2022-11-11T14:20:49;9.45;;;4.53;;
16727;SDS011;8482;54.396;18.590;2022-11-11T14:39:40;9.55;;;3.85;;
16727;SDS011;8482;54.396;18.590;2022-11-11T14:47:47;7.78;;;3.90;;
16727;SDS011;8482;54.396;18.590;2022-11-11T14:56:01;7.45;;;3.58;;
16727;SDS011;8482;54.396;18.590;2022-11-11T14:58:32;9.18;;;4.07;;
16727;SDS011;8482;54.396;18.590;2022-11-11T15:03:39;7.75;;;3.95;;
16727;SDS011;8482;54.396;18.590;2022-11-11T15:06:27;8.88;;;4.22;;
16727;SDS011;8482;54.396;18.590;2022-11-11T15:09:48;8.40;;;3.80;;
16727;SDS011;8482;54.396;18.590;2022-11-11T15:15:40;7.97;;;4.57;;
16727;SDS011;8482;54.396;18.590;2022-11-11T15:18:16;9.93;;;5.15;;
16727;SDS011;8482;54.396;18.590;2022-11-11T15:21:36;8.30;;;4.55;;
16727;SDS011;8482;54.396;18.590;2022-11-11T15:30:12;8.52;;;4.10;;
16727;SDS011;8482;54.396;18.590;2022-11-11T15:35:49;9.98;;;5.07;;
16727;SDS011;8482;54.396;18.590;2022-11-11T15:38:29;9.13;;;4.35;;
16727;SDS011;8482;54.396;18.590;2022-11-11T15:40:56;7.10;;;4.03;;
16727;SDS011;8482;54.396;18.590;2022-11-11T15:43:25;10.32;;;4.50;;
16727;SDS011;8482;54.396;18.590;2022-11-11T15:45:59;10.30;;;4.10;;
16727;SDS011;8482;54.396;18.590;2022-11-11T15:48:34;5.65;;;3.20;;
16727;SDS011;8482;54.396;18.590;2022-11-11T15:56:40;10.32;;;4.72;;
16727;SDS011;8482;54.396;18.590;2022-11-11T16:02:06;8.45;;;4.60;;
16727;SDS011;8482;54.396;18.590;2022-11-11T16:04:47;8.60;;;4.20;;
16727;SDS011;8482;54.396;18.590;2022-11-11T16:07:26;9.60;;;4.35;;
16727;SDS011;8482;54.396;18.590;2022-11-11T16:12:53;8.90;;;5.00;;
